SEKCJA WYDRUKÓW, pokaż »

TAF EPBY 211730Z 2118/2218 05012KT CAVOK
PROB40 TEMPO 2210/2218 07015G25KT SCT040TCU=

TAF EPGD 211730Z 2118/2218 07010KT CAVOK
PROB40 2200/2205 3000 BR BKN005
TEMPO 2209/2218 06015G30KT=

TAF EPKK 212030Z 2121/2221 07010KT CAVOK
BECMG 2203/2205 VRB02KT
TEMPO 2208/2221 SHRA BKN040CB
PROB40 TEMPO 2212/2218 VRB15G35KT 2500 TSRAGR=

TAF EPKT 211730Z 2118/2218 10010KT CAVOK
BECMG 2206/2209 24006KT
TEMPO 2208/2218 SHRA BKN040CB
PROB40 TEMPO 2212/2218 VRB15G25KT 3000 TSRA=

TAF EPLB 211730Z 2118/2218 07007KT CAVOK
PROB40 TEMPO 2213/2218 11015G25KT -TSRA SCT045CB=

TAF EPLL 211730Z 2118/2218 09010KT CAVOK
TEMPO 2212/2218 3000 TSRA BKN040CB
PROB40 TEMPO 2213/2216 VRB20G30KT 1500 TSGR
BECMG 2215/2218 VRB02KT=

TAF EPMO 211730Z 2118/2218 07007KT CAVOK
PROB40 TEMPO 2216/2218 -TSRA SCT045CB=

TAF EPPO 211730Z 2118/2218 10010KT CAVOK
TEMPO 2209/2211 VRB15G30KT
TEMPO 2211/2218 VRB15G30KT 2000 TSRAGR BKN030CB=

TAF EPRZ 211730Z 2118/2218 11007KT CAVOK
TEMPO 2208/2218 SHRA BKN045CB
PROB40 TEMPO 2214/2218 VRB15G25KT 2500 TSRAGR=

TAF EPSC 211730Z 2118/2218 06010KT CAVOK
TEMPO 2206/2215 09015G30KT
TEMPO 2215/2218 VRB15G32KT 3000 TSRA BKN045CB
PROB40 TEMPO 2215/2218 1500 TSRA TSGR=

TAF EPWA 212030Z 2121/2221 08008KT CAVOK
PROB40 TEMPO 2215/2218 VRB15G25KT 2500 TSRA BKN050CB
TEMPO 2218/2221 SHRA BKN050CB=

TAF EPWR 212030Z 2121/2221 06005KT CAVOK
BECMG 2208/2210 20013KT
TEMPO 2208/2218 SHRA BKN040CB
PROB30 TEMPO 2210/2215 VRB15G28KT 2000 TSRA
BECMG 2216/2218 27008KT=